sensor_id;sensor_type;location;lat;lon;timestamp;pressure;altitude;pressure_sealevel;temperature
71081;BMP180;58740;50.672;18.690;2023-05-18T00:00:52;99625.00;;;10.00
71081;BMP180;58740;50.672;18.690;2023-05-18T00:03:20;99627.20;;;10.00
71081;BMP180;58740;50.672;18.690;2023-05-18T00:05:49;99624.40;;;10.00
71081;BMP180;58740;50.672;18.690;2023-05-18T00:08:17;99627.60;;;10.00
71081;BMP180;58740;50.672;18.690;2023-05-18T00:10:45;99626.80;;;10.00
71081;BMP180;58740;50.672;18.690;2023-05-18T00:13:13;99626.80;;;10.00
71081;BMP180;58740;50.672;18.690;2023-05-18T00:15:41;99630.80;;;10.00
71081;BMP180;58740;50.672;18.690;2023-05-18T00:18:08;99630.60;;;10.02
71081;BMP180;58740;50.672;18.690;2023-05-18T00:20:37;99632.40;;;10.10
71081;BMP180;58740;50.672;18.690;2023-05-18T00:23:05;99632.20;;;10.10
71081;BMP180;58740;50.672;18.690;2023-05-18T00:25:37;99632.60;;;10.10
71081;BMP180;58740;50.672;18.690;2023-05-18T00:28:04;99632.60;;;10.08
71081;BMP180;58740;50.672;18.690;2023-05-18T00:30:32;99633.40;;;10.04
71081;BMP180;58740;50.672;18.690;2023-05-18T00:33:00;99635.40;;;10.04
71081;BMP180;58740;50.672;18.690;2023-05-18T00:35:27;99634.40;;;10.10
71081;BMP180;58740;50.672;18.690;2023-05-18T00:37:56;99639.80;;;10.10
71081;BMP180;58740;50.672;18.690;2023-05-18T00:40:26;99643.00;;;10.10
71081;BMP180;58740;50.672;18.690;2023-05-18T00:42:55;99641.00;;;10.08
71081;BMP180;58740;50.672;18.690;2023-05-18T00:45:23;99643.00;;;10.00
71081;BMP180;58740;50.672;18.690;2023-05-18T00:47:51;99652.20;;;10.00
71081;BMP180;58740;50.672;18.690;2023-05-18T00:50:19;99658.40;;;10.00
71081;BMP180;58740;50.672;18.690;2023-05-18T00:52:47;99659.00;;;9.90
71081;BMP180;58740;50.672;18.690;2023-05-18T00:55:15;99661.20;;;9.90
71081;BMP180;58740;50.672;18.690;2023-05-18T00:57:43;99662.60;;;9.90
71081;BMP180;58740;50.672;18.690;2023-05-18T01:00:15;99664.40;;;9.90
71081;BMP180;58740;50.672;18.690;2023-05-18T01:02:42;99665.60;;;9.90
71081;BMP180;58740;50.672;18.690;2023-05-18T01:05:12;99667.80;;;9.82
71081;BMP180;58740;50.672;18.690;2023-05-18T01:07:40;99667.40;;;9.80
71081;BMP180;58740;50.672;18.690;2023-05-18T01:10:14;99666.20;;;9.80
71081;BMP180;58740;50.672;18.690;2023-05-18T01:13:02;99665.40;;;9.80
71081;BMP180;58740;50.672;18.690;2023-05-18T01:15:37;99670.20;;;9.80
71081;BMP180;58740;50.672;18.690;2023-05-18T01:18:31;99670.40;;;9.80
71081;BMP180;58740;50.672;18.690;2023-05-18T01:21:36;99675.40;;;9.80
71081;BMP180;58740;50.672;18.690;2023-05-18T01:24:37;99676.80;;;9.80
71081;BMP180;58740;50.672;18.690;2023-05-18T01:27:13;99672.80;;;9.78
71081;BMP180;58740;50.672;18.690;2023-05-18T01:29:45;99676.40;;;9.74
71081;BMP180;58740;50.672;18.690;2023-05-18T01:32:18;99670.80;;;9.70
71081;BMP180;58740;50.672;18.690;2023-05-18T01:34:48;99677.00;;;9.78
71081;BMP180;58740;50.672;18.690;2023-05-18T01:37:16;99675.80;;;9.70
71081;BMP180;58740;50.672;18.690;2023-05-18T01:39:44;99675.80;;;9.70
71081;BMP180;58740;50.672;18.690;2023-05-18T01:42:24;99680.00;;;9.70
71081;BMP180;58740;50.672;18.690;2023-05-18T01:45:02;99680.40;;;9.70
71081;BMP180;58740;50.672;18.690;2023-05-18T01:47:33;99683.20;;;9.70
71081;BMP180;58740;50.672;18.690;2023-05-18T01:50:33;99686.00;;;9.70
71081;BMP180;58740;50.672;18.690;2023-05-18T01:53:11;99690.40;;;9.70
71081;BMP180;58740;50.672;18.690;2023-05-18T01:55:42;99689.60;;;9.70
71081;BMP180;58740;50.672;18.690;2023-05-18T01:58:13;99692.00;;;9.70
71081;BMP180;58740;50.672;18.690;2023-05-18T02:00:44;99692.00;;;9.70
71081;BMP180;58740;50.672;18.690;2023-05-18T02:03:13;99695.20;;;9.68
71081;BMP180;58740;50.672;18.690;2023-05-18T02:05:41;99695.20;;;9.70
71081;BMP180;58740;50.672;18.690;2023-05-18T02:08:09;99699.40;;;9.62
71081;BMP180;58740;50.672;18.690;2023-05-18T02:10:37;99704.00;;;9.64
71081;BMP180;58740;50.672;18.690;2023-05-18T02:13:04;99703.00;;;9.68
71081;BMP180;58740;50.672;18.690;2023-05-18T02:15:32;99700.00;;;9.60
71081;BMP180;58740;50.672;18.690;2023-05-18T02:18:00;99707.40;;;9.60
71081;BMP180;58740;50.672;18.690;2023-05-18T02:20:29;99707.60;;;9.60
71081;BMP180;58740;50.672;18.690;2023-05-18T02:23:00;99701.80;;;9.60
71081;BMP180;58740;50.672;18.690;2023-05-18T02:25:27;99701.80;;;9.60
71081;BMP180;58740;50.672;18.690;2023-05-18T02:27:55;99705.60;;;9.60
71081;BMP180;58740;50.672;18.690;2023-05-18T02:30:23;99711.60;;;9.58
71081;BMP180;58740;50.672;18.690;2023-05-18T02:32:51;99710.20;;;9.52
71081;BMP180;58740;50.672;18.690;2023-05-18T02:35:19;99715.40;;;9.52
71081;BMP180;58740;50.672;18.690;2023-05-18T02:37:47;99713.00;;;9.50
71081;BMP180;58740;50.672;18.690;2023-05-18T02:40:16;99714.60;;;9.50
71081;BMP180;58740;50.672;18.690;2023-05-18T02:42:44;99719.60;;;9.50
71081;BMP180;58740;50.672;18.690;2023-05-18T02:45:12;99715.00;;;9.50
71081;BMP180;58740;50.672;18.690;2023-05-18T02:47:40;99717.40;;;9.50
71081;BMP180;58740;50.672;18.690;2023-05-18T02:50:11;99716.60;;;9.50
71081;BMP180;58740;50.672;18.690;2023-05-18T02:52:38;99719.00;;;9.50
71081;BMP180;58740;50.672;18.690;2023-05-18T02:55:07;99719.80;;;9.50
71081;BMP180;58740;50.672;18.690;2023-05-18T02:57:34;99718.80;;;9.50
71081;BMP180;58740;50.672;18.690;2023-05-18T03:00:03;99717.00;;;9.50
71081;BMP180;58740;50.672;18.690;2023-05-18T03:02:37;99718.00;;;9.50
71081;BMP180;58740;50.672;18.690;2023-05-18T03:05:06;99723.00;;;9.50
71081;BMP180;58740;50.672;18.690;2023-05-18T03:07:33;99725.80;;;9.50
71081;BMP180;58740;50.672;18.690;2023-05-18T03:10:02;99722.20;;;9.40
71081;BMP180;58740;50.672;18.690;2023-05-18T03:12:30;99725.40;;;9.40
71081;BMP180;58740;50.672;18.690;2023-05-18T03:14:58;99730.00;;;9.40
71081;BMP180;58740;50.672;18.690;2023-05-18T03:17:26;99732.20;;;9.40
71081;BMP180;58740;50.672;18.690;2023-05-18T03:19:53;99733.60;;;9.40
71081;BMP180;58740;50.672;18.690;2023-05-18T03:22:21;99739.60;;;9.40
71081;BMP180;58740;50.672;18.690;2023-05-18T03:24:49;99742.40;;;9.40
71081;BMP180;58740;50.672;18.690;2023-05-18T03:27:17;99744.00;;;9.40
71081;BMP180;58740;50.672;18.690;2023-05-18T03:29:50;99742.60;;;9.40
71081;BMP180;58740;50.672;18.690;2023-05-18T03:32:19;99749.60;;;9.40
71081;BMP180;58740;50.672;18.690;2023-05-18T03:34:47;99751.00;;;9.40
71081;BMP180;58740;50.672;18.690;2023-05-18T03:37:15;99753.20;;;9.40
71081;BMP180;58740;50.672;18.690;2023-05-18T03:39:43;99754.40;;;9.40
71081;BMP180;58740;50.672;18.690;2023-05-18T03:42:10;99749.40;;;9.40
71081;BMP180;58740;50.672;18.690;2023-05-18T03:44:38;99753.40;;;9.40
71081;BMP180;58740;50.672;18.690;2023-05-18T03:47:06;99750.80;;;9.40
71081;BMP180;58740;50.672;18.690;2023-05-18T03:49:34;99760.20;;;9.40
71081;BMP180;58740;50.672;18.690;2023-05-18T03:52:03;99765.00;;;9.40
71081;BMP180;58740;50.672;18.690;2023-05-18T03:54:31;99763.60;;;9.42
71081;BMP180;58740;50.672;18.690;2023-05-18T03:56:59;99759.20;;;9.42
71081;BMP180;58740;50.672;18.690;2023-05-18T03:59:27;99765.00;;;9.40
71081;BMP180;58740;50.672;18.690;2023-05-18T04:01:55;99771.80;;;9.40
71081;BMP180;58740;50.672;18.690;2023-05-18T04:04:22;99772.40;;;9.40
71081;BMP180;58740;50.672;18.690;2023-05-18T04:06:54;99778.60;;;9.40
71081;BMP180;58740;50.672;18.690;2023-05-18T04:09:22;99784.80;;;9.40
71081;BMP180;58740;50.672;18.690;2023-05-18T04:11:50;99786.20;;;9.40
71081;BMP180;58740;50.672;18.690;2023-05-18T04:14:18;99786.60;;;9.40
71081;BMP180;58740;50.672;18.690;2023-05-18T04:16:47;99791.40;;;9.40
71081;BMP180;58740;50.672;18.690;2023-05-18T04:19:15;99788.80;;;9.40
71081;BMP180;58740;50.672;18.690;2023-05-18T04:21:44;99786.80;;;9.40
71081;BMP180;58740;50.672;18.690;2023-05-18T04:24:14;99789.80;;;9.40
71081;BMP180;58740;50.672;18.690;2023-05-18T04:26:42;99787.80;;;9.40
71081;BMP180;58740;50.672;18.690;2023-05-18T04:29:10;99785.80;;;9.40
71081;BMP180;58740;50.672;18.690;2023-05-18T04:31:40;99783.80;;;9.40
71081;BMP180;58740;50.672;18.690;2023-05-18T04:34:09;99788.20;;;9.40
71081;BMP180;58740;50.672;18.690;2023-05-18T04:36:39;99791.80;;;9.40
71081;BMP180;58740;50.672;18.690;2023-05-18T04:39:10;99789.80;;;9.40
71081;BMP180;58740;50.672;18.690;2023-05-18T04:41:38;99790.00;;;9.40
71081;BMP180;58740;50.672;18.690;2023-05-18T04:44:08;99788.20;;;9.40
71081;BMP180;58740;50.672;18.690;2023-05-18T04:46:36;99790.00;;;9.40
71081;BMP180;58740;50.672;18.690;2023-05-18T04:49:06;99793.40;;;9.40
71081;BMP180;58740;50.672;18.690;2023-05-18T04:51:34;99796.00;;;9.40
71081;BMP180;58740;50.672;18.690;2023-05-18T04:54:03;99793.80;;;9.40
71081;BMP180;58740;50.672;18.690;2023-05-18T04:56:32;99798.80;;;9.40
71081;BMP180;58740;50.672;18.690;2023-05-18T04:59:00;99804.00;;;9.40
71081;BMP180;58740;50.672;18.690;2023-05-18T05:01:29;99795.40;;;9.40
71081;BMP180;58740;50.672;18.690;2023-05-18T05:03:56;99799.20;;;9.40
71081;BMP180;58740;50.672;18.690;2023-05-18T05:06:26;99802.80;;;9.44
71081;BMP180;58740;50.672;18.690;2023-05-18T05:08:54;99797.40;;;9.50
71081;BMP180;58740;50.672;18.690;2023-05-18T05:11:22;99795.40;;;9.50
71081;BMP180;58740;50.672;18.690;2023-05-18T05:13:49;99796.60;;;9.50
71081;BMP180;58740;50.672;18.690;2023-05-18T05:16:17;99800.40;;;9.50
71081;BMP180;58740;50.672;18.690;2023-05-18T05:18:45;99799.80;;;9.56
71081;BMP180;58740;50.672;18.690;2023-05-18T05:21:14;99797.00;;;9.60
71081;BMP180;58740;50.672;18.690;2023-05-18T05:23:42;99803.60;;;9.60
71081;BMP180;58740;50.672;18.690;2023-05-18T05:26:11;99797.60;;;9.70
71081;BMP180;58740;50.672;18.690;2023-05-18T05:28:39;99807.20;;;9.70
71081;BMP180;58740;50.672;18.690;2023-05-18T05:31:07;99802.40;;;9.80
71081;BMP180;58740;50.672;18.690;2023-05-18T05:33:36;99800.60;;;9.80
71081;BMP180;58740;50.672;18.690;2023-05-18T05:36:04;99801.80;;;9.80
71081;BMP180;58740;50.672;18.690;2023-05-18T05:38:32;99803.00;;;9.82
71081;BMP180;58740;50.672;18.690;2023-05-18T05:41:01;99802.00;;;9.90
71081;BMP180;58740;50.672;18.690;2023-05-18T05:43:28;99807.20;;;9.90
71081;BMP180;58740;50.672;18.690;2023-05-18T05:45:56;99804.40;;;9.90
71081;BMP180;58740;50.672;18.690;2023-05-18T05:48:24;99808.80;;;9.94
71081;BMP180;58740;50.672;18.690;2023-05-18T05:50:52;99808.80;;;10.00
71081;BMP180;58740;50.672;18.690;2023-05-18T05:53:19;99812.60;;;10.00
71081;BMP180;58740;50.672;18.690;2023-05-18T05:55:49;99810.20;;;10.00
71081;BMP180;58740;50.672;18.690;2023-05-18T05:58:17;99813.00;;;10.02
71081;BMP180;58740;50.672;18.690;2023-05-18T06:00:45;99810.40;;;10.10
71081;BMP180;58740;50.672;18.690;2023-05-18T06:03:13;99811.00;;;10.10
71081;BMP180;58740;50.672;18.690;2023-05-18T06:05:41;99819.40;;;10.10
71081;BMP180;58740;50.672;18.690;2023-05-18T06:08:08;99823.80;;;10.10
71081;BMP180;58740;50.672;18.690;2023-05-18T06:10:36;99821.40;;;10.18
71081;BMP180;58740;50.672;18.690;2023-05-18T06:13:05;99828.00;;;10.20
71081;BMP180;58740;50.672;18.690;2023-05-18T06:15:33;99828.60;;;10.20
71081;BMP180;58740;50.672;18.690;2023-05-18T06:18:01;99827.40;;;10.20
71081;BMP180;58740;50.672;18.690;2023-05-18T06:20:29;99823.60;;;10.20
71081;BMP180;58740;50.672;18.690;2023-05-18T06:22:57;99828.80;;;10.20
71081;BMP180;58740;50.672;18.690;2023-05-18T06:25:25;99832.00;;;10.28
71081;BMP180;58740;50.672;18.690;2023-05-18T06:27:52;99832.80;;;10.30
71081;BMP180;58740;50.672;18.690;2023-05-18T06:30:20;99831.60;;;10.30
71081;BMP180;58740;50.672;18.690;2023-05-18T06:32:48;99831.20;;;10.40
71081;BMP180;58740;50.672;18.690;2023-05-18T06:35:16;99825.80;;;10.40
71081;BMP180;58740;50.672;18.690;2023-05-18T06:37:44;99830.20;;;10.50
71081;BMP180;58740;50.672;18.690;2023-05-18T06:40:13;99836.40;;;10.58
71081;BMP180;58740;50.672;18.690;2023-05-18T06:42:41;99837.80;;;10.60
71081;BMP180;58740;50.672;18.690;2023-05-18T06:45:09;99835.60;;;10.60
71081;BMP180;58740;50.672;18.690;2023-05-18T06:47:37;99840.60;;;10.60
71081;BMP180;58740;50.672;18.690;2023-05-18T06:50:06;99842.40;;;10.60
71081;BMP180;58740;50.672;18.690;2023-05-18T06:52:34;99845.00;;;10.60
71081;BMP180;58740;50.672;18.690;2023-05-18T06:55:02;99845.40;;;10.60
71081;BMP180;58740;50.672;18.690;2023-05-18T06:57:30;99842.40;;;10.60
71081;BMP180;58740;50.672;18.690;2023-05-18T06:59:58;99846.00;;;10.60
71081;BMP180;58740;50.672;18.690;2023-05-18T07:02:26;99843.80;;;10.60
71081;BMP180;58740;50.672;18.690;2023-05-18T07:04:53;99839.40;;;10.62
71081;BMP180;58740;50.672;18.690;2023-05-18T07:07:21;99845.60;;;10.70
71081;BMP180;58740;50.672;18.690;2023-05-18T07:09:49;99851.00;;;10.70
71081;BMP180;58740;50.672;18.690;2023-05-18T07:12:17;99856.20;;;10.70
71081;BMP180;58740;50.672;18.690;2023-05-18T07:14:45;99851.00;;;10.80
71081;BMP180;58740;50.672;18.690;2023-05-18T07:17:12;99845.00;;;10.80
71081;BMP180;58740;50.672;18.690;2023-05-18T07:19:40;99844.20;;;10.90
71081;BMP180;58740;50.672;18.690;2023-05-18T07:22:08;99846.40;;;10.90
71081;BMP180;58740;50.672;18.690;2023-05-18T07:24:36;99853.80;;;11.00
71081;BMP180;58740;50.672;18.690;2023-05-18T07:27:04;99853.20;;;11.00
71081;BMP180;58740;50.672;18.690;2023-05-18T07:29:32;99853.00;;;11.10
71081;BMP180;58740;50.672;18.690;2023-05-18T07:32:00;99850.40;;;11.08
71081;BMP180;58740;50.672;18.690;2023-05-18T07:34:28;99854.00;;;11.00
71081;BMP180;58740;50.672;18.690;2023-05-18T07:36:55;99853.20;;;11.00
71081;BMP180;58740;50.672;18.690;2023-05-18T07:39:24;99852.80;;;11.10
71081;BMP180;58740;50.672;18.690;2023-05-18T07:41:55;99857.40;;;11.10
71081;BMP180;58740;50.672;18.690;2023-05-18T07:44:23;99859.20;;;11.20
71081;BMP180;58740;50.672;18.690;2023-05-18T07:46:52;99864.40;;;11.20
71081;BMP180;58740;50.672;18.690;2023-05-18T07:49:20;99869.20;;;11.30
71081;BMP180;58740;50.672;18.690;2023-05-18T07:51:50;99869.60;;;11.30
71081;BMP180;58740;50.672;18.690;2023-05-18T07:54:18;99865.60;;;11.30
71081;BMP180;58740;50.672;18.690;2023-05-18T07:56:46;99868.00;;;11.40
71081;BMP180;58740;50.672;18.690;2023-05-18T07:59:14;99868.00;;;11.40
71081;BMP180;58740;50.672;18.690;2023-05-18T08:01:42;99872.00;;;11.40
71081;BMP180;58740;50.672;18.690;2023-05-18T08:04:12;99868.40;;;11.40
71081;BMP180;58740;50.672;18.690;2023-05-18T08:06:40;99868.40;;;11.40
71081;BMP180;58740;50.672;18.690;2023-05-18T08:09:08;99870.60;;;11.40
71081;BMP180;58740;50.672;18.690;2023-05-18T08:11:35;99877.20;;;11.40
71081;BMP180;58740;50.672;18.690;2023-05-18T08:14:03;99869.60;;;11.50
71081;BMP180;58740;50.672;18.690;2023-05-18T08:16:31;99873.20;;;11.50
71081;BMP180;58740;50.672;18.690;2023-05-18T08:19:04;99871.00;;;11.50
71081;BMP180;58740;50.672;18.690;2023-05-18T08:21:31;99875.20;;;11.52
71081;BMP180;58740;50.672;18.690;2023-05-18T08:24:03;99874.20;;;11.60
71081;BMP180;58740;50.672;18.690;2023-05-18T08:26:31;99876.40;;;11.70
71081;BMP180;58740;50.672;18.690;2023-05-18T08:28:58;99877.00;;;11.74
71081;BMP180;58740;50.672;18.690;2023-05-18T08:31:26;99872.80;;;11.80
71081;BMP180;58740;50.672;18.690;2023-05-18T08:33:54;99873.40;;;11.90
71081;BMP180;58740;50.672;18.690;2023-05-18T08:36:22;99869.20;;;11.90
71081;BMP180;58740;50.672;18.690;2023-05-18T08:38:49;99873.40;;;12.00
71081;BMP180;58740;50.672;18.690;2023-05-18T08:41:31;99875.40;;;12.00
71081;BMP180;58740;50.672;18.690;2023-05-18T08:44:15;99877.80;;;12.02
71081;BMP180;58740;50.672;18.690;2023-05-18T08:46:49;99876.60;;;12.10
71081;BMP180;58740;50.672;18.690;2023-05-18T08:49:19;99879.40;;;12.10
71081;BMP180;58740;50.672;18.690;2023-05-18T08:51:56;99885.60;;;12.10
71081;BMP180;58740;50.672;18.690;2023-05-18T08:54:25;99882.40;;;12.10
71081;BMP180;58740;50.672;18.690;2023-05-18T08:56:53;99880.40;;;12.10
71081;BMP180;58740;50.672;18.690;2023-05-18T08:59:25;99875.60;;;12.10
71081;BMP180;58740;50.672;18.690;2023-05-18T09:01:53;99873.60;;;12.10
71081;BMP180;58740;50.672;18.690;2023-05-18T09:04:22;99869.80;;;12.00
71081;BMP180;58740;50.672;18.690;2023-05-18T09:06:53;99867.20;;;12.06
71081;BMP180;58740;50.672;18.690;2023-05-18T09:09:23;99868.20;;;12.10
71081;BMP180;58740;50.672;18.690;2023-05-18T09:11:51;99865.80;;;12.18
71081;BMP180;58740;50.672;18.690;2023-05-18T09:14:20;99870.20;;;12.26
71081;BMP180;58740;50.672;18.690;2023-05-18T09:16:52;99861.60;;;12.30
71081;BMP180;58740;50.672;18.690;2023-05-18T09:19:20;99851.60;;;12.40
71081;BMP180;58740;50.672;18.690;2023-05-18T09:21:48;99857.40;;;12.40
71081;BMP180;58740;50.672;18.690;2023-05-18T09:24:16;99855.40;;;12.46
71081;BMP180;58740;50.672;18.690;2023-05-18T09:26:45;99854.40;;;12.50
71081;BMP180;58740;50.672;18.690;2023-05-18T09:29:15;99851.20;;;12.50
71081;BMP180;58740;50.672;18.690;2023-05-18T09:31:45;99856.40;;;12.60
71081;BMP180;58740;50.672;18.690;2023-05-18T09:34:14;99858.00;;;12.70
71081;BMP180;58740;50.672;18.690;2023-05-18T09:36:49;99850.60;;;12.72
71081;BMP180;58740;50.672;18.690;2023-05-18T09:39:19;99856.80;;;12.78
71081;BMP180;58740;50.672;18.690;2023-05-18T09:41:54;99866.20;;;12.70
71081;BMP180;58740;50.672;18.690;2023-05-18T09:44:33;99866.00;;;12.60
71081;BMP180;58740;50.672;18.690;2023-05-18T09:47:07;99867.00;;;12.60
71081;BMP180;58740;50.672;18.690;2023-05-18T09:49:35;99868.80;;;12.60
71081;BMP180;58740;50.672;18.690;2023-05-18T09:52:07;99870.60;;;12.60
71081;BMP180;58740;50.672;18.690;2023-05-18T09:54:35;99874.20;;;12.60
71081;BMP180;58740;50.672;18.690;2023-05-18T09:57:04;99884.00;;;12.60
71081;BMP180;58740;50.672;18.690;2023-05-18T09:59:37;99871.80;;;12.60
71081;BMP180;58740;50.672;18.690;2023-05-18T10:02:05;99873.00;;;12.50
71081;BMP180;58740;50.672;18.690;2023-05-18T10:04:41;99874.00;;;12.50
71081;BMP180;58740;50.672;18.690;2023-05-18T10:07:15;99877.60;;;12.50
71081;BMP180;58740;50.672;18.690;2023-05-18T10:09:45;99877.60;;;12.50
71081;BMP180;58740;50.672;18.690;2023-05-18T10:12:17;99865.40;;;12.40
71081;BMP180;58740;50.672;18.690;2023-05-18T10:14:48;99870.40;;;12.38
71081;BMP180;58740;50.672;18.690;2023-05-18T10:17:16;99872.40;;;12.30
71081;BMP180;58740;50.672;18.690;2023-05-18T10:19:44;99876.60;;;12.40
71081;BMP180;58740;50.672;18.690;2023-05-18T10:22:17;99870.60;;;12.40
71081;BMP180;58740;50.672;18.690;2023-05-18T10:24:50;99872.80;;;12.40
71081;BMP180;58740;50.672;18.690;2023-05-18T10:27:26;99875.40;;;12.40
71081;BMP180;58740;50.672;18.690;2023-05-18T10:29:58;99872.00;;;12.40
71081;BMP180;58740;50.672;18.690;2023-05-18T10:32:29;99874.20;;;12.40
71081;BMP180;58740;50.672;18.690;2023-05-18T10:34:58;99873.60;;;12.40
71081;BMP180;58740;50.672;18.690;2023-05-18T10:37:28;99873.80;;;12.40
71081;BMP180;58740;50.672;18.690;2023-05-18T10:40:00;99873.40;;;12.42
71081;BMP180;58740;50.672;18.690;2023-05-18T10:42:29;99875.20;;;12.50
71081;BMP180;58740;50.672;18.690;2023-05-18T10:44:59;99875.00;;;12.50
71081;BMP180;58740;50.672;18.690;2023-05-18T10:47:28;99876.80;;;12.50
71081;BMP180;58740;50.672;18.690;2023-05-18T10:49:58;99876.80;;;12.50
71081;BMP180;58740;50.672;18.690;2023-05-18T10:52:33;99871.20;;;12.50
71081;BMP180;58740;50.672;18.690;2023-05-18T10:55:04;99874.80;;;12.50
71081;BMP180;58740;50.672;18.690;2023-05-18T10:57:47;99878.60;;;12.50
71081;BMP180;58740;50.672;18.690;2023-05-18T11:00:20;99868.80;;;12.40
71081;BMP180;58740;50.672;18.690;2023-05-18T11:02:49;99876.00;;;12.40
71081;BMP180;58740;50.672;18.690;2023-05-18T11:05:24;99869.80;;;12.40
71081;BMP180;58740;50.672;18.690;2023-05-18T11:08:00;99870.80;;;12.40
71081;BMP180;58740;50.672;18.690;2023-05-18T11:10:43;99864.20;;;12.40
71081;BMP180;58740;50.672;18.690;2023-05-18T11:13:14;99866.80;;;12.34
71081;BMP180;58740;50.672;18.690;2023-05-18T11:16:03;99869.60;;;12.40
71081;BMP180;58740;50.672;18.690;2023-05-18T11:26:53;99868.20;;;12.40
71081;BMP180;58740;50.672;18.690;2023-05-18T11:29:43;99871.80;;;12.40
71081;BMP180;58740;50.672;18.690;2023-05-18T11:32:26;99876.20;;;12.40
71081;BMP180;58740;50.672;18.690;2023-05-18T11:34:58;99876.00;;;12.40
71081;BMP180;58740;50.672;18.690;2023-05-18T11:40:11;99886.20;;;12.50
71081;BMP180;58740;50.672;18.690;2023-05-18T11:42:40;99888.20;;;12.50
71081;BMP180;58740;50.672;18.690;2023-05-18T11:45:10;99890.80;;;12.50
71081;BMP180;58740;50.672;18.690;2023-05-18T11:47:39;99884.60;;;12.50
71081;BMP180;58740;50.672;18.690;2023-05-18T11:50:09;99889.60;;;12.50
71081;BMP180;58740;50.672;18.690;2023-05-18T11:52:47;99886.80;;;12.50
71081;BMP180;58740;50.672;18.690;2023-05-18T11:55:18;99891.00;;;12.50
71081;BMP180;58740;50.672;18.690;2023-05-18T11:57:49;99893.40;;;12.50
71081;BMP180;58740;50.672;18.690;2023-05-18T12:00:19;99895.80;;;12.50
71081;BMP180;58740;50.672;18.690;2023-05-18T12:02:48;99897.60;;;12.50
71081;BMP180;58740;50.672;18.690;2023-05-18T12:05:16;99891.20;;;12.50
71081;BMP180;58740;50.672;18.690;2023-05-18T12:07:51;99901.00;;;12.50
71081;BMP180;58740;50.672;18.690;2023-05-18T12:10:22;99900.60;;;12.48
71081;BMP180;58740;50.672;18.690;2023-05-18T12:12:52;99898.80;;;12.50
71081;BMP180;58740;50.672;18.690;2023-05-18T12:15:22;99895.40;;;12.50
71081;BMP180;58740;50.672;18.690;2023-05-18T12:17:50;99895.20;;;12.46
71081;BMP180;58740;50.672;18.690;2023-05-18T12:20:22;99893.00;;;12.40
71081;BMP180;58740;50.672;18.690;2023-05-18T12:22:56;99895.20;;;12.42
71081;BMP180;58740;50.672;18.690;2023-05-18T12:25:25;99892.80;;;12.44
71081;BMP180;58740;50.672;18.690;2023-05-18T12:27:55;99889.20;;;12.50
71081;BMP180;58740;50.672;18.690;2023-05-18T12:30:27;99899.80;;;12.50
71081;BMP180;58740;50.672;18.690;2023-05-18T12:33:03;99890.60;;;12.50
71081;BMP180;58740;50.672;18.690;2023-05-18T12:35:31;99891.00;;;12.50
71081;BMP180;58740;50.672;18.690;2023-05-18T12:38:00;99893.60;;;12.50
71081;BMP180;58740;50.672;18.690;2023-05-18T12:40:37;99890.80;;;12.58
71081;BMP180;58740;50.672;18.690;2023-05-18T12:43:12;99888.80;;;12.60
71081;BMP180;58740;50.672;18.690;2023-05-18T12:45:43;99885.20;;;12.60
71081;BMP180;58740;50.672;18.690;2023-05-18T12:48:12;99884.80;;;12.60
71081;BMP180;58740;50.672;18.690;2023-05-18T12:50:46;99881.80;;;12.68
71081;BMP180;58740;50.672;18.690;2023-05-18T12:53:16;99890.20;;;12.70
71081;BMP180;58740;50.672;18.690;2023-05-18T12:55:44;99883.80;;;12.70
71081;BMP180;58740;50.672;18.690;2023-05-18T12:58:13;99886.00;;;12.70
71081;BMP180;58740;50.672;18.690;2023-05-18T13:00:46;99889.80;;;12.70
71081;BMP180;58740;50.672;18.690;2023-05-18T13:03:16;99892.20;;;12.70
71081;BMP180;58740;50.672;18.690;2023-05-18T13:06:04;99886.00;;;12.70
71081;BMP180;58740;50.672;18.690;2023-05-18T13:08:34;99884.80;;;12.70
71081;BMP180;58740;50.672;18.690;2023-05-18T13:11:03;99887.20;;;12.62
71081;BMP180;58740;50.672;18.690;2023-05-18T13:14:04;99882.40;;;12.66
71081;BMP180;58740;50.672;18.690;2023-05-18T13:16:37;99885.40;;;12.70
71081;BMP180;58740;50.672;18.690;2023-05-18T13:19:09;99882.60;;;12.70
71081;BMP180;58740;50.672;18.690;2023-05-18T13:21:38;99884.20;;;12.70
71081;BMP180;58740;50.672;18.690;2023-05-18T13:24:06;99880.40;;;12.70
71081;BMP180;58740;50.672;18.690;2023-05-18T13:26:34;99877.60;;;12.70
71081;BMP180;58740;50.672;18.690;2023-05-18T13:29:01;99876.00;;;12.70
71081;BMP180;58740;50.672;18.690;2023-05-18T13:31:29;99878.60;;;12.70
71081;BMP180;58740;50.672;18.690;2023-05-18T13:33:57;99878.00;;;12.70
71081;BMP180;58740;50.672;18.690;2023-05-18T13:36:25;99878.80;;;12.70
71081;BMP180;58740;50.672;18.690;2023-05-18T13:38:56;99880.00;;;12.70
71081;BMP180;58740;50.672;18.690;2023-05-18T13:41:24;99883.00;;;12.70
71081;BMP180;58740;50.672;18.690;2023-05-18T13:43:52;99881.80;;;12.70
71081;BMP180;58740;50.672;18.690;2023-05-18T13:46:20;99877.40;;;12.70
71081;BMP180;58740;50.672;18.690;2023-05-18T13:48:49;99876.00;;;12.72
71081;BMP180;58740;50.672;18.690;2023-05-18T13:51:18;99871.80;;;12.80
71081;BMP180;58740;50.672;18.690;2023-05-18T13:53:47;99872.80;;;12.80
71081;BMP180;58740;50.672;18.690;2023-05-18T13:56:15;99872.80;;;12.80
71081;BMP180;58740;50.672;18.690;2023-05-18T13:58:43;99869.60;;;12.82
71081;BMP180;58740;50.672;18.690;2023-05-18T14:01:13;99867.00;;;12.84
71081;BMP180;58740;50.672;18.690;2023-05-18T14:03:41;99869.80;;;12.88
71081;BMP180;58740;50.672;18.690;2023-05-18T14:06:11;99861.80;;;12.80
71081;BMP180;58740;50.672;18.690;2023-05-18T14:08:38;99869.20;;;12.80
71081;BMP180;58740;50.672;18.690;2023-05-18T14:11:06;99866.80;;;12.80
71081;BMP180;58740;50.672;18.690;2023-05-18T14:13:34;99867.20;;;12.80
71081;BMP180;58740;50.672;18.690;2023-05-18T14:16:02;99865.00;;;12.82
71081;BMP180;58740;50.672;18.690;2023-05-18T14:18:30;99870.20;;;12.88
71081;BMP180;58740;50.672;18.690;2023-05-18T14:20:58;99868.40;;;12.88
71081;BMP180;58740;50.672;18.690;2023-05-18T14:23:30;99870.00;;;12.82
71081;BMP180;58740;50.672;18.690;2023-05-18T14:25:57;99864.80;;;12.80
71081;BMP180;58740;50.672;18.690;2023-05-18T14:28:25;99869.60;;;12.80